createdAt,value
2022-10-11T00:01:59.225Z,98043.09
2022-10-11T00:04:26.021Z,98049.50
2022-10-11T00:06:52.658Z,98048.09
2022-10-11T00:09:19.427Z,98046.56
2022-10-11T00:11:46.006Z,98044.56
2022-10-11T00:14:12.703Z,98048.00
2022-10-11T00:16:41.650Z,98047.31
2022-10-11T00:19:08.325Z,98047.19
2022-10-11T00:21:36.691Z,98042.38
2022-10-11T00:24:04.416Z,98043.16
2022-10-11T00:26:31.088Z,98040.09
2022-10-11T00:28:57.767Z,98034.00
2022-10-11T00:31:24.804Z,98034.00
2022-10-11T00:33:53.767Z,98033.75
2022-10-11T00:36:21.711Z,98035.94
2022-10-11T00:38:48.440Z,98030.78
2022-10-11T00:41:16.279Z,98027.06
2022-10-11T00:43:44.410Z,98031.53
2022-10-11T00:46:14.061Z,98030.00
2022-10-11T00:48:55.347Z,98035.78
2022-10-11T00:51:58.693Z,98037.44
2022-10-11T00:54:27.247Z,98025.84
2022-10-11T00:56:58.711Z,98029.56
2022-10-11T00:59:29.034Z,98023.84
2022-10-11T01:01:55.851Z,98032.19
2022-10-11T01:04:22.731Z,98035.53
2022-10-11T01:06:50.610Z,98031.09
2022-10-11T01:09:20.150Z,98028.59
2022-10-11T01:11:48.659Z,98037.78
2022-10-11T01:14:37.434Z,98030.84
2022-10-11T01:17:18.913Z,98036.94
2022-10-11T01:20:18.788Z,98034.56
2022-10-11T01:23:07.302Z,98026.44
2022-10-11T01:25:42.932Z,98022.66
2022-10-11T01:28:45.068Z,98032.19
2022-10-11T01:31:20.828Z,98036.97
2022-10-11T01:34:02.006Z,98031.72
2022-10-11T01:37:05.842Z,98027.31
2022-10-11T01:39:48.555Z,98028.59
2022-10-11T01:42:18.722Z,98033.00
2022-10-11T01:44:48.192Z,98031.91
2022-10-11T01:47:22.682Z,98027.66
2022-10-11T01:49:57.728Z,98031.91
2022-10-11T01:52:27.230Z,98033.84
2022-10-11T01:55:09.544Z,98024.91
2022-10-11T01:57:39.283Z,98027.00
2022-10-11T02:00:18.308Z,98024.53
2022-10-11T02:03:04.981Z,98021.75
2022-10-11T02:05:43.184Z,98029.97
2022-10-11T02:08:31.625Z,98031.50
2022-10-11T02:11:01.162Z,98028.50
2022-10-11T02:13:47.303Z,98027.41
2022-10-11T02:16:19.870Z,98025.59
2022-10-11T02:18:51.218Z,98024.66
2022-10-11T02:21:20.808Z,98036.13
2022-10-11T02:23:53.886Z,98034.19
2022-10-11T02:26:23.389Z,98040.50
2022-10-11T02:28:53.028Z,98037.38
2022-10-11T02:31:21.722Z,98042.94
2022-10-11T02:33:56.426Z,98042.25
2022-10-11T02:36:36.641Z,98049.16
2022-10-11T02:39:09.727Z,98034.78
2022-10-11T02:41:41.010Z,98045.31
2022-10-11T02:44:18.952Z,98047.22
2022-10-11T02:46:47.479Z,98044.72
2022-10-11T02:49:16.163Z,98048.19
2022-10-11T02:51:43.003Z,98044.97
2022-10-11T02:54:09.734Z,98056.19
2022-10-11T02:56:36.643Z,98056.31
2022-10-11T02:59:03.562Z,98063.25
2022-10-11T03:01:30.611Z,98051.31
2022-10-11T03:03:57.639Z,98054.91
2022-10-11T03:06:26.316Z,98061.13
2022-10-11T03:08:53.158Z,98051.59
2022-10-11T03:11:20.283Z,98054.00
2022-10-11T03:13:47.080Z,98050.66
2022-10-11T03:16:14.696Z,98055.09
2022-10-11T03:18:41.538Z,98056.44
2022-10-11T03:21:08.180Z,98072.91
2022-10-11T03:23:34.791Z,98065.16
2022-10-11T03:26:04.410Z,98064.06
2022-10-11T03:28:31.469Z,98063.63
2022-10-11T03:30:58.139Z,98064.13
2022-10-11T03:33:25.031Z,98071.28
2022-10-11T03:35:53.181Z,98067.72
2022-10-11T03:38:21.951Z,98075.59
2022-10-11T03:40:48.619Z,98072.09
2022-10-11T03:43:15.717Z,98071.44
2022-10-11T03:45:42.448Z,98069.63
2022-10-11T03:48:09.459Z,98078.00
2022-10-11T03:50:36.707Z,98071.81
2022-10-11T03:53:04.271Z,98075.97
2022-10-11T03:55:31.039Z,98083.69
2022-10-11T03:57:58.113Z,98086.78
2022-10-11T04:00:24.903Z,98082.13
2022-10-11T04:02:51.550Z,98087.13
2022-10-11T04:05:18.469Z,98082.47
2022-10-11T04:07:45.104Z,98088.28
2022-10-11T04:10:12.030Z,98087.69
2022-10-11T04:12:39.208Z,98091.13
2022-10-11T04:15:06.980Z,98095.03
2022-10-11T04:17:34.144Z,98098.38
2022-10-11T04:20:00.859Z,98094.53
2022-10-11T04:22:27.504Z,98099.78
2022-10-11T04:24:54.178Z,98097.28
2022-10-11T04:27:20.879Z,98105.50
2022-10-11T04:29:47.531Z,98107.91
2022-10-11T04:32:14.321Z,98110.06
2022-10-11T04:34:41.946Z,98115.97
2022-10-11T04:37:08.636Z,98107.91
2022-10-11T04:39:35.515Z,98114.34
2022-10-11T04:42:02.228Z,98115.63
2022-10-11T04:44:28.944Z,98115.91
2022-10-11T04:46:55.685Z,98118.41
2022-10-11T04:49:23.306Z,98121.97
2022-10-11T04:51:49.935Z,98124.13
2022-10-11T04:54:16.575Z,98110.00
2022-10-11T04:56:43.815Z,98124.81
2022-10-11T04:59:10.826Z,98119.19
2022-10-11T05:01:37.666Z,98127.63
2022-10-11T05:04:04.385Z,98124.88
2022-10-11T05:06:31.225Z,98129.06
2022-10-11T05:08:57.812Z,98133.78
2022-10-11T05:11:24.992Z,98125.22
2022-10-11T05:13:51.798Z,98136.19
2022-10-11T05:16:18.959Z,98136.28
2022-10-11T05:18:45.619Z,98135.47
2022-10-11T05:21:24.820Z,98139.91
2022-10-11T05:23:52.991Z,98144.19
2022-10-11T05:26:20.467Z,98143.53
2022-10-11T05:28:48.106Z,98138.84
2022-10-11T05:31:15.235Z,98146.38
2022-10-11T05:33:42.902Z,98149.31
2022-10-11T05:36:10.260Z,98151.41
2022-10-11T05:38:37.148Z,98154.63
2022-10-11T05:41:05.435Z,98151.72
2022-10-11T05:43:32.786Z,98156.47
2022-10-11T05:45:59.484Z,98160.56
2022-10-11T05:48:26.841Z,98152.41
2022-10-11T05:50:58.348Z,98159.06
2022-10-11T05:53:24.976Z,98161.31
2022-10-11T05:55:51.829Z,98161.34
2022-10-11T05:58:18.804Z,98167.94
2022-10-11T06:00:45.916Z,98159.34
2022-10-11T06:03:14.261Z,98174.28
2022-10-11T06:05:41.216Z,98173.59
2022-10-11T06:08:09.886Z,98180.41
2022-10-11T06:10:38.290Z,98173.88
2022-10-11T06:13:05.650Z,98179.16
2022-10-11T06:15:33.119Z,98187.63
2022-10-11T06:17:59.846Z,98185.56
2022-10-11T06:20:27.297Z,98185.69
2022-10-11T06:22:54.018Z,98192.78
2022-10-11T06:25:21.139Z,98197.78
2022-10-11T06:27:47.793Z,98207.47
2022-10-11T06:30:15.338Z,98200.84
2022-10-11T06:32:41.985Z,98194.63
2022-10-11T06:35:09.191Z,98203.66
2022-10-11T06:37:36.057Z,98204.06
2022-10-11T06:40:03.185Z,98204.22
2022-10-11T06:42:29.939Z,98204.28
2022-10-11T06:44:56.917Z,98209.56
2022-10-11T06:47:23.625Z,98209.06
2022-10-11T06:49:50.261Z,98205.84
2022-10-11T06:52:16.934Z,98207.41
2022-10-11T06:54:45.097Z,98221.16
2022-10-11T06:57:12.619Z,98217.97
2022-10-11T06:59:39.617Z,98216.69
2022-10-11T07:02:06.884Z,98220.69
2022-10-11T07:04:34.118Z,98226.75
2022-10-11T07:07:01.356Z,98220.47
2022-10-11T07:09:28.171Z,98222.22
2022-10-11T07:11:54.937Z,98218.78
2022-10-11T07:14:21.901Z,98227.63
2022-10-11T07:16:48.549Z,98228.56
2022-10-11T07:19:15.205Z,98229.28
2022-10-11T07:21:41.872Z,98228.44
2022-10-11T07:24:08.993Z,98225.34
2022-10-11T07:26:38.496Z,98229.50
2022-10-11T07:29:08.732Z,98235.31
2022-10-11T07:31:38.659Z,98224.03
2022-10-11T07:34:05.370Z,98228.59
2022-10-11T07:36:32.248Z,98227.38
2022-10-11T07:38:59.054Z,98226.19
2022-10-11T07:41:25.889Z,98228.97
2022-10-11T07:43:54.930Z,98225.78
2022-10-11T07:46:22.525Z,98223.41
2022-10-11T07:48:50.436Z,98223.84
2022-10-11T07:51:21.050Z,98228.47
2022-10-11T07:53:50.623Z,98227.88
2022-10-11T07:56:20.685Z,98218.53
2022-10-11T07:58:53.250Z,98234.56
2022-10-11T08:01:21.275Z,98232.88
2022-10-11T08:03:49.059Z,98229.84
2022-10-11T08:06:19.282Z,98231.63
2022-10-11T08:08:46.537Z,98235.91
2022-10-11T08:11:24.622Z,98236.88
2022-10-11T08:13:52.001Z,98237.25
2022-10-11T08:16:18.684Z,98236.00
2022-10-11T08:18:45.922Z,98239.94
2022-10-11T08:21:15.727Z,98243.53
2022-10-11T08:23:42.388Z,98244.09
2022-10-11T08:26:11.297Z,98248.25
2022-10-11T08:28:38.469Z,98243.13
2022-10-11T08:31:05.756Z,98250.56
2022-10-11T08:33:32.876Z,98249.91
2022-10-11T08:36:04.930Z,98243.56
2022-10-11T08:38:32.768Z,98258.84
2022-10-11T08:41:00.924Z,98256.53
2022-10-11T08:43:53.070Z,98247.34
2022-10-11T08:46:26.436Z,98246.84
2022-10-11T08:48:54.394Z,98253.69
2022-10-11T08:51:27.169Z,98261.34
2022-10-11T08:54:20.247Z,98255.75
2022-10-11T08:56:47.393Z,98253.50
2022-10-11T08:59:33.964Z,98255.06
2022-10-11T09:02:26.339Z,98262.38
2022-10-11T09:04:55.748Z,98258.81
2022-10-11T09:07:34.554Z,98256.69
2022-10-11T09:10:04.303Z,98259.56
2022-10-11T09:13:31.121Z,98256.28
2022-10-11T09:16:10.405Z,98255.47
2022-10-11T09:19:04.493Z,98252.72
2022-10-11T09:21:43.265Z,98252.22
2022-10-11T09:24:19.094Z,98262.50
2022-10-11T09:26:56.615Z,98252.03
2022-10-11T09:29:47.837Z,98260.81
2022-10-11T09:32:17.936Z,98254.03
2022-10-11T09:34:44.816Z,98256.28
2022-10-11T09:37:30.618Z,98253.00
2022-10-11T09:40:06.777Z,98248.84
2022-10-11T09:42:33.792Z,98258.91
2022-10-11T09:45:01.199Z,98253.00
2022-10-11T09:47:30.479Z,98258.03
2022-10-11T09:50:16.793Z,98256.25
2022-10-11T09:52:55.857Z,98266.41
2022-10-11T09:55:50.929Z,98253.03
2022-10-11T09:58:31.547Z,98263.66
2022-10-11T10:01:08.014Z,98259.22
2022-10-11T10:03:46.127Z,98253.84
2022-10-11T10:06:27.872Z,98253.72
2022-10-11T10:08:55.562Z,98252.44
2022-10-11T10:11:22.714Z,98263.25
2022-10-11T10:13:56.032Z,98252.38
2022-10-11T10:16:34.232Z,98259.50
2022-10-11T10:19:02.077Z,98252.13
2022-10-11T10:21:34.140Z,98259.69
2022-10-11T10:24:05.369Z,98255.06
2022-10-11T10:26:32.582Z,98261.47
2022-10-11T10:29:08.248Z,98252.53
2022-10-11T10:35:02.682Z,98255.50
2022-10-11T10:37:39.705Z,98255.19
2022-10-11T10:40:14.474Z,98247.41
2022-10-11T10:42:41.450Z,98251.34
2022-10-11T10:45:17.434Z,98237.84
2022-10-11T10:48:23.473Z,98240.50
2022-10-11T10:51:00.824Z,98248.75
2022-10-11T10:53:33.748Z,98250.19
2022-10-11T10:56:11.218Z,98244.06
2022-10-11T10:59:25.522Z,98239.63
2022-10-11T11:02:39.676Z,98239.06
2022-10-11T11:05:46.775Z,98245.66
2022-10-11T11:08:35.006Z,98232.25
2022-10-11T11:11:40.152Z,98246.88
2022-10-11T11:14:07.278Z,98238.72
2022-10-11T11:16:54.631Z,98235.19
2022-10-11T11:19:38.442Z,98228.88
2022-10-11T11:22:50.192Z,98225.91
2022-10-11T11:25:22.862Z,98222.78
2022-10-11T11:28:17.484Z,98220.03
2022-10-11T11:30:59.522Z,98225.56
2022-10-11T11:33:49.681Z,98208.75
2022-10-11T11:36:35.631Z,98207.31
2022-10-11T11:39:05.073Z,98209.13
2022-10-11T11:41:43.585Z,98216.88
2022-10-11T11:44:16.266Z,98210.88
2022-10-11T11:46:51.553Z,98211.47
2022-10-11T11:49:25.204Z,98203.84
2022-10-11T11:51:55.813Z,98204.66
2022-10-11T11:54:47.174Z,98194.00
2022-10-11T11:57:49.884Z,98190.66
2022-10-11T12:00:23.085Z,98191.22
2022-10-11T12:03:01.910Z,98185.22
2022-10-11T12:05:36.436Z,98177.38
2022-10-11T12:08:26.038Z,98180.47
2022-10-11T12:11:01.424Z,98176.78
2022-10-11T12:13:37.112Z,98177.44
2022-10-11T12:16:04.752Z,98172.13
2022-10-11T12:18:35.642Z,98172.22
2022-10-11T12:21:16.895Z,98175.97
2022-10-11T12:23:47.084Z,98175.94
2022-10-11T12:26:32.499Z,98177.34
2022-10-11T12:29:07.614Z,98169.91
2022-10-11T12:31:36.732Z,98171.66
2022-10-11T12:34:09.713Z,98171.34
2022-10-11T12:36:38.326Z,98167.16
2022-10-11T12:39:19.937Z,98163.53
2022-10-11T12:41:53.871Z,98167.88
2022-10-11T12:44:28.818Z,98168.19
2022-10-11T12:46:55.458Z,98162.59
2022-10-11T12:49:24.695Z,98158.34
2022-10-11T12:52:01.475Z,98158.22
2022-10-11T12:54:37.407Z,98151.44
2022-10-11T12:57:29.224Z,98159.16
2022-10-11T13:00:16.312Z,98167.06
2022-10-11T13:02:43.604Z,98159.44
2022-10-11T13:05:31.663Z,98163.53
2022-10-11T13:08:04.424Z,98161.56
2022-10-11T13:10:39.517Z,98160.53
2022-10-11T13:13:15.974Z,98155.75
2022-10-11T13:15:51.849Z,98156.44
2022-10-11T13:18:22.844Z,98169.25
2022-10-11T13:20:49.765Z,98164.63
2022-10-11T13:23:25.716Z,98162.09
2022-10-11T13:25:54.181Z,98155.31
2022-10-11T13:28:23.637Z,98159.06
2022-10-11T13:30:56.164Z,98152.53
2022-10-11T13:33:26.879Z,98153.63
2022-10-11T13:35:53.993Z,98156.00
2022-10-11T13:38:26.731Z,98154.09
2022-10-11T13:40:56.135Z,98162.13
2022-10-11T13:43:27.531Z,98163.03
2022-10-11T13:45:57.129Z,98166.56
2022-10-11T13:48:28.166Z,98166.91
2022-10-11T13:51:28.754Z,98164.72
2022-10-11T13:54:07.777Z,98161.88
2022-10-11T13:56:51.494Z,98156.94
2022-10-11T13:59:23.777Z,98152.25
2022-10-11T14:01:57.614Z,98152.81
2022-10-11T14:04:29.535Z,98150.69
2022-10-11T14:07:02.751Z,98153.88
2022-10-11T14:09:37.041Z,98154.47
2022-10-11T14:12:28.551Z,98147.72
2022-10-11T14:14:55.589Z,98152.66
2022-10-11T14:17:32.879Z,98145.13
2022-10-11T14:20:14.451Z,98145.78
2022-10-11T14:22:41.511Z,98148.59
2022-10-11T14:25:08.590Z,98159.28
2022-10-11T14:27:36.912Z,98155.78
2022-10-11T14:30:31.845Z,98148.13
2022-10-11T14:33:01.539Z,98150.47
2022-10-11T14:35:31.122Z,98145.75
2022-10-11T14:37:58.451Z,98152.28
2022-10-11T14:40:29.888Z,98157.22
2022-10-11T14:42:57.164Z,98155.44
2022-10-11T14:45:24.399Z,98155.59
2022-10-11T14:47:52.129Z,98160.69
2022-10-11T14:50:30.417Z,98161.63
2022-10-11T14:52:58.054Z,98158.28
2022-10-11T14:55:25.257Z,98160.81
2022-10-11T14:57:52.266Z,98165.34
2022-10-11T15:00:27.677Z,98160.66
2022-10-11T15:02:55.868Z,98167.66
2022-10-11T15:05:28.679Z,98165.69
2022-10-11T15:07:58.531Z,98172.22
2022-10-11T15:10:33.733Z,98175.72
2022-10-11T15:13:01.169Z,98170.06
2022-10-11T15:15:32.859Z,98173.66
2022-10-11T15:18:00.481Z,98180.75
2022-10-11T15:20:38.395Z,98176.47
2022-10-11T15:23:07.951Z,98173.31
2022-10-11T15:25:37.914Z,98170.84
2022-10-11T15:28:06.104Z,98171.28
2022-10-11T15:30:41.075Z,98173.69
2022-10-11T15:33:09.234Z,98185.84
2022-10-11T15:35:35.974Z,98176.59
2022-10-11T15:38:03.182Z,98181.56
2022-10-11T15:40:36.047Z,98185.69
2022-10-11T15:43:03.953Z,98177.97
2022-10-11T15:45:31.415Z,98179.25
2022-10-11T15:47:58.660Z,98186.53
2022-10-11T15:50:36.769Z,98185.16
2022-10-11T15:53:05.272Z,98190.53
2022-10-11T15:55:35.501Z,98193.13
2022-10-11T15:58:02.570Z,98190.00
2022-10-11T16:00:30.663Z,98198.34
2022-10-11T16:02:59.035Z,98206.34
2022-10-11T16:05:28.498Z,98208.56
2022-10-11T16:07:55.489Z,98213.72
2022-10-11T16:10:22.638Z,98209.41
2022-10-11T16:12:49.633Z,98215.41
2022-10-11T16:15:17.108Z,98222.03
2022-10-11T16:17:45.384Z,98223.72
2022-10-11T16:20:13.669Z,98219.41
2022-10-11T16:22:41.396Z,98224.38
2022-10-11T16:25:08.319Z,98225.34
2022-10-11T16:27:35.752Z,98225.06
2022-10-11T16:30:02.952Z,98229.38
2022-10-11T16:32:33.435Z,98227.84
2022-10-11T16:35:00.451Z,98234.31
2022-10-11T16:37:27.413Z,98236.31
2022-10-11T16:39:54.284Z,98230.66
2022-10-11T16:42:21.034Z,98231.66
2022-10-11T16:44:47.698Z,98240.09
2022-10-11T16:47:15.815Z,98243.72
2022-10-11T16:49:42.918Z,98247.03
2022-10-11T16:52:14.110Z,98248.84
2022-10-11T16:54:47.814Z,98250.16
2022-10-11T16:57:16.217Z,98255.16
2022-10-11T16:59:43.394Z,98258.81
2022-10-11T17:02:27.634Z,98259.97
2022-10-11T17:04:58.753Z,98262.44
2022-10-11T17:07:26.342Z,98268.56
2022-10-11T17:09:53.279Z,98276.72
2022-10-11T17:12:23.667Z,98277.19
2022-10-11T17:14:51.598Z,98287.00
2022-10-11T17:17:19.410Z,98285.38
2022-10-11T17:19:47.782Z,98281.41
2022-10-11T17:22:18.294Z,98290.91
2022-10-11T17:24:47.634Z,98288.59
2022-10-11T17:27:14.595Z,98290.09
2022-10-11T17:29:41.584Z,98295.88
2022-10-11T17:32:08.707Z,98290.91
2022-10-11T17:34:35.703Z,98290.06
2022-10-11T17:37:02.652Z,98297.19
2022-10-11T17:39:29.496Z,98306.47
2022-10-11T17:41:56.204Z,98305.81
2022-10-11T17:44:23.037Z,98309.13
2022-10-11T17:46:50.327Z,98306.97
2022-10-11T17:49:17.047Z,98307.28
2022-10-11T17:51:44.193Z,98310.72
2022-10-11T17:54:13.087Z,98321.47
2022-10-11T17:56:43.073Z,98311.16
2022-10-11T17:59:16.898Z,98308.84
2022-10-11T18:01:43.778Z,98309.84
2022-10-11T18:04:16.522Z,98314.28
2022-10-11T18:06:46.294Z,98323.06
2022-10-11T18:09:15.304Z,98324.72
2022-10-11T18:11:42.589Z,98327.38
2022-10-11T18:14:10.028Z,98322.06
2022-10-11T18:16:38.631Z,98327.69
2022-10-11T18:19:10.084Z,98332.13
2022-10-11T18:21:38.007Z,98329.78
2022-10-11T18:24:12.832Z,98336.44
2022-10-11T18:26:39.962Z,98332.41
2022-10-11T18:29:07.503Z,98333.81
2022-10-11T18:31:35.363Z,98329.28
2022-10-11T18:34:04.065Z,98328.06
2022-10-11T18:36:32.478Z,98334.31
2022-10-11T18:39:02.431Z,98331.81
2022-10-11T18:41:32.126Z,98333.97
2022-10-11T18:44:02.434Z,98339.03
2022-10-11T18:46:30.160Z,98336.16
2022-10-11T18:48:58.360Z,98331.13
2022-10-11T18:51:26.928Z,98339.09
2022-10-11T18:53:55.323Z,98332.81
2022-10-11T18:56:24.814Z,98329.34
2022-10-11T18:58:53.662Z,98331.91
2022-10-11T19:01:26.399Z,98326.31
2022-10-11T19:03:56.716Z,98326.63
2022-10-11T19:06:27.437Z,98329.59
2022-10-11T19:09:03.870Z,98328.53
2022-10-11T19:11:32.543Z,98334.22
2022-10-11T19:14:02.638Z,98332.25
2022-10-11T19:16:30.629Z,98328.13
2022-10-11T19:18:57.476Z,98334.66
2022-10-11T19:21:24.346Z,98335.63
2022-10-11T19:23:51.950Z,98338.94
2022-10-11T19:26:24.319Z,98340.56
2022-10-11T19:28:56.707Z,98333.75
2022-10-11T19:31:25.439Z,98342.53
2022-10-11T19:33:52.694Z,98347.13
2022-10-11T19:36:20.159Z,98349.03
2022-10-11T19:38:48.757Z,98355.84
2022-10-11T19:41:18.125Z,98347.91
2022-10-11T19:43:46.379Z,98345.53
2022-10-11T19:46:20.265Z,98353.19
2022-10-11T19:48:51.570Z,98357.00
2022-10-11T19:51:23.792Z,98354.50
2022-10-11T19:54:00.252Z,98364.03
2022-10-11T19:56:31.340Z,98355.25
2022-10-11T19:58:58.390Z,98360.34
2022-10-11T20:01:27.488Z,98361.31
2022-10-11T20:03:56.774Z,98363.00
2022-10-11T20:06:25.347Z,98353.59
2022-10-11T20:09:10.335Z,98359.78
2022-10-11T20:11:39.503Z,98363.72
2022-10-11T20:14:06.216Z,98357.75
2022-10-11T20:16:33.221Z,98349.31
2022-10-11T20:19:00.312Z,98352.44
2022-10-11T20:21:29.771Z,98349.50
2022-10-11T20:24:02.490Z,98355.72
2022-10-11T20:26:30.773Z,98359.97
2022-10-11T20:28:58.265Z,98368.03
2022-10-11T20:31:34.581Z,98368.16
2022-10-11T20:34:15.421Z,98364.84
2022-10-11T20:36:48.904Z,98368.81
2022-10-11T20:39:16.437Z,98369.09
2022-10-11T20:41:44.038Z,98367.44
2022-10-11T20:44:13.306Z,98371.28
2022-10-11T20:46:40.203Z,98371.13
2022-10-11T20:49:10.394Z,98367.50
2022-10-11T20:51:39.736Z,98369.41
2022-10-11T20:54:06.665Z,98366.66
2022-10-11T20:56:34.326Z,98375.38
2022-10-11T20:59:01.927Z,98381.81
2022-10-11T21:01:40.682Z,98378.72
2022-10-11T21:04:10.285Z,98370.09
2022-10-11T21:06:37.404Z,98379.44
2022-10-11T21:09:04.413Z,98379.69
2022-10-11T21:11:33.478Z,98372.50
2022-10-11T21:14:03.419Z,98377.41
2022-10-11T21:16:31.005Z,98377.56
2022-10-11T21:18:59.494Z,98377.94
2022-10-11T21:21:27.566Z,98369.72
2022-10-11T21:23:59.609Z,98368.94
2022-10-11T21:26:27.586Z,98368.56
2022-10-11T21:28:54.915Z,98369.38
2022-10-11T21:31:22.472Z,98368.63
2022-10-11T21:33:49.905Z,98369.44
2022-10-11T21:36:18.063Z,98369.75
2022-10-11T21:38:45.036Z,98365.06
2022-10-11T21:41:15.639Z,98367.63
2022-10-11T21:43:42.674Z,98359.19
2022-10-11T21:46:15.893Z,98363.25
2022-10-11T21:48:43.246Z,98365.13
2022-10-11T21:51:23.698Z,98365.56
2022-10-11T21:53:51.208Z,98368.13
2022-10-11T21:56:18.107Z,98370.75
2022-10-11T21:58:49.346Z,98372.47
2022-10-11T22:01:17.729Z,98368.88
2022-10-11T22:03:45.819Z,98364.56
2022-10-11T22:06:31.521Z,98372.22
2022-10-11T22:08:58.311Z,98366.22
2022-10-11T22:11:25.503Z,98378.72
2022-10-11T22:13:52.641Z,98372.91
2022-10-11T22:16:20.546Z,98370.13
2022-10-11T22:18:47.469Z,98377.31
2022-10-11T22:21:21.522Z,98371.44
2022-10-11T22:23:50.321Z,98374.75
2022-10-11T22:26:26.804Z,98377.28
2022-10-11T22:28:53.557Z,98377.81
2022-10-11T22:31:22.350Z,98376.84
2022-10-11T22:33:53.005Z,98384.19
2022-10-11T22:36:20.270Z,98378.06
2022-10-11T22:38:47.324Z,98376.25
2022-10-11T22:41:14.260Z,98373.88
2022-10-11T22:43:41.110Z,98375.28
2022-10-11T22:46:08.701Z,98375.41
2022-10-11T22:48:35.508Z,98374.75
2022-10-11T22:51:03.654Z,98367.91
2022-10-11T22:53:30.994Z,98365.25
2022-10-11T22:55:58.412Z,98366.94
2022-10-11T22:58:25.654Z,98365.69
2022-10-11T23:00:52.568Z,98358.41
2022-10-11T23:03:20.046Z,98365.38
2022-10-11T23:05:57.818Z,98362.72
2022-10-11T23:08:25.466Z,98350.75
2022-10-11T23:10:52.891Z,98367.19
2022-10-11T23:13:20.235Z,98351.44
2022-10-11T23:15:46.955Z,98356.75
2022-10-11T23:18:16.531Z,98358.00
2022-10-11T23:20:43.732Z,98363.06
2022-10-11T23:23:10.567Z,98361.53
2022-10-11T23:25:37.418Z,98366.44
2022-10-11T23:28:04.511Z,98368.69
2022-10-11T23:30:31.453Z,98371.72
2022-10-11T23:32:58.276Z,98371.19
2022-10-11T23:35:25.305Z,98374.50
2022-10-11T23:37:53.707Z,98375.63
2022-10-11T23:40:20.897Z,98380.34
2022-10-11T23:42:47.665Z,98383.25
2022-10-11T23:45:14.706Z,98384.22
2022-10-11T23:47:41.356Z,98382.13
2022-10-11T23:50:09.227Z,98387.56
2022-10-11T23:52:36.336Z,98386.44
2022-10-11T23:55:03.821Z,98389.75
2022-10-11T23:57:30.406Z,98396.88
2022-10-11T23:59:57.486Z,98391.72
